14. Juni 2021

Aktuelles

Flugkraftstoffe – Rabattsystem

Der Flughafen Hof-Plauen bietet seinen treuen Kunden und allen, die es werden wollen, Rabatte
auf die getankten Jahreskraftstoffmengen.
Gültig für die Kraftstoffe AvGas 100LL und JET A1. [ Mehr… ]

Anzeige

Airport PPR-Regelungen – Update: 27.02.21

Unser Flughafen-Status in folgenden Zeiträumen:

Bis 30.06.2021:

  • IFR PPR an Sa, Su, Hol
  • AD PPR an Sa, Su, Hol (12.45-13.30 Uhr LT)

PPR-Tel: +49 9292-977261

Email: info@edqm.de

Flugplatzwetter

METAR:

EDQM 140420Z 00000KT CAVOK 08/06 Q1025

Verhalten am Flughafen

Anzeige

AirShampoo 2021 – Wir sind dabei!

Doppelnutzung

In Abstimmung mit dem Freistaat Bayern wird der Verkehrslandeplatz Hof-Plauen bis auf weiteres einer Doppelnutzung ab 01.09.2015 zugeführt.

Aufgrund der Parallelnutzung zum Test von Fahrerassistenzsystemen aus dem Bereich der Automobilentwicklung ergibt sich folgende Einschränkungen:

Taxiway „B“ zeitweise nicht nutzbar und Vorfeldbereich eingeschränkt berollbar!